Time;durP1;ratioP1;P1;durP2;ratioP2;P2;SDS_P1;SDS_P2;PMS_P1;PMS_P2;Temp;Humidity;BMP_temperature;BMP_pressure;BME280_temperature;BME280_humidity;BME280_pressure;Samples;Min_cycle;Max_cycle;Signal;HPM_P1;HPM_P2
2022/04/10 00:01:57;;;;;;;5.80;4.10;;;;;;;12.88;64.75;99860.47;5008813;28;103640;-50
2022/04/10 00:04:25;;;;;;;5.20;3.80;;;;;;;12.87;64.80;99847.91;5010145;28;102399;-50
2022/04/10 00:06:54;;;;;;;5.45;3.95;;;;;;;12.88;64.89;99849.56;5013253;28;102055;-50
2022/04/10 00:09:20;;;;;;;5.85;3.65;;;;;;;12.88;64.81;99846.81;5018095;27;103984;-50
2022/04/10 00:11:50;;;;;;;5.40;3.97;;;;;;;12.87;64.75;99837.78;5009873;28;101925;-50
2022/04/10 00:14:16;;;;;;;5.45;3.65;;;;;;;12.87;64.90;99842.44;5008578;28;102261;-50
2022/04/10 00:16:43;;;;;;;4.57;3.33;;;;;;;12.87;64.82;99837.00;5009586;28;102533;-50
2022/04/10 00:19:28;;;;;;;6.97;4.28;;;;;;;12.87;64.88;99839.72;5011444;28;104035;-50
2022/04/10 00:21:55;;;;;;;5.27;3.63;;;;;;;12.87;64.88;99843.25;5010735;28;102270;-50
2022/04/10 00:24:25;;;;;;;5.03;3.67;;;;;;;12.87;64.95;99842.44;5012078;28;101992;-50
2022/04/10 00:26:52;;;;;;;7.70;4.05;;;;;;;12.87;65.17;99850.63;5013942;28;102676;-51
2022/04/10 00:29:20;;;;;;;5.90;3.70;;;;;;;12.86;65.31;99849.03;5010623;28;103811;-50
2022/04/10 00:31:47;;;;;;;4.90;3.88;;;;;;;12.86;65.17;99851.75;5009283;28;102318;-50
2022/04/10 00:34:14;;;;;;;5.18;3.75;;;;;;;12.86;65.16;99857.22;5010662;28;102276;-51
2022/04/10 00:36:42;;;;;;;6.22;4.00;;;;;;;12.86;65.43;99857.22;5011392;28;102328;-50
2022/04/10 00:39:09;;;;;;;7.63;3.97;;;;;;;12.86;65.30;99868.94;5009956;28;104055;-53
2022/04/10 00:41:36;;;;;;;5.28;3.90;;;;;;;12.86;65.25;99868.16;5012346;28;102321;-50
2022/04/10 00:44:04;;;;;;;7.03;3.90;;;;;;;12.86;64.96;99874.41;5009889;28;102134;-50
2022/04/10 00:46:31;;;;;;;5.68;4.00;;;;;;;12.86;65.19;99858.03;5010728;28;102463;-50
2022/04/10 00:48:59;;;;;;;4.45;3.85;;;;;;;12.85;65.23;99855.63;5010988;28;103682;-50
2022/04/10 00:51:40;;;;;;;5.03;3.70;;;;;;;12.86;65.17;99857.22;5011433;28;102275;-50
2022/04/10 00:54:10;;;;;;;5.55;3.72;;;;;;;12.86;65.15;99862.69;5009706;28;102513;-51
2022/04/10 00:56:37;;;;;;;4.60;3.67;;;;;;;12.85;65.07;99856.44;5012930;28;102893;-51
2022/04/10 00:59:06;;;;;;;4.88;3.38;;;;;;;12.86;65.08;99857.22;5011116;28;103937;-51
2022/04/10 01:01:34;;;;;;;5.65;3.90;;;;;;;12.86;65.07;99859.97;5012650;28;102408;-50
2022/04/10 01:04:02;;;;;;;5.07;3.90;;;;;;;12.85;64.93;99861.09;5012222;28;102619;-50
2022/04/10 01:06:31;;;;;;;5.95;3.80;;;;;;;12.86;65.19;99862.69;5012053;28;102130;-50
2022/04/10 01:08:59;;;;;;;5.78;3.58;;;;;;;12.86;65.33;99862.69;5012147;28;103865;-50
2022/04/10 01:11:28;;;;;;;6.55;4.00;;;;;;;12.85;65.08;99866.53;5013003;28;101923;-50
2022/04/10 01:13:56;;;;;;;5.68;3.80;;;;;;;12.85;65.29;99861.09;5011449;28;101960;-50
2022/04/10 01:16:22;;;;;;;7.25;3.92;;;;;;;12.85;65.12;99856.44;5013195;28;102471;-50
2022/04/10 01:18:50;;;;;;;4.85;3.88;;;;;;;12.85;65.36;99866.53;5007070;28;104336;-50
2022/04/10 01:21:25;;;;;;;5.50;3.78;;;;;;;12.85;65.20;99858.34;5008848;28;102062;-51
2022/04/10 01:23:55;;;;;;;6.18;3.80;;;;;;;12.86;65.32;99862.69;5009482;28;101972;-50
2022/04/10 01:26:25;;;;;;;6.53;4.00;;;;;;;12.84;64.88;99853.97;5014149;28;102424;-50
2022/04/10 01:28:57;;;;;;;5.13;3.73;;;;;;;12.85;65.11;99844.69;5009188;28;103777;-50
2022/04/10 01:31:26;;;;;;;7.95;4.05;;;;;;;12.84;65.31;99853.97;4996543;28;102417;-50
2022/04/10 01:33:56;;;;;;;6.03;3.90;;;;;;;12.85;65.24;99858.34;5009189;28;101968;-50
2022/04/10 01:36:24;;;;;;;5.43;3.95;;;;;;;12.85;65.36;99861.09;5010256;28;102134;-50
2022/04/10 01:38:54;;;;;;;6.30;3.90;;;;;;;12.83;65.21;99861.38;5009519;28;104622;-50
2022/04/10 01:41:20;;;;;;;5.75;3.33;;;;;;;12.84;65.07;99863.00;5010511;28;102091;-50
2022/04/10 01:43:49;;;;;;;6.55;4.32;;;;;;;12.85;65.57;99866.53;5011801;28;102127;-50
2022/04/10 01:46:16;;;;;;;5.22;3.90;;;;;;;12.84;65.33;99875.81;5009875;28;101977;-50
2022/04/10 01:48:44;;;;;;;4.45;3.80;;;;;;;12.84;65.56;99887.59;5011775;28;103891;-50
2022/04/10 01:51:12;;;;;;;4.22;3.70;;;;;;;12.83;65.11;99872.28;5013185;28;102248;-50
2022/04/10 01:53:39;;;;;;;6.40;3.85;;;;;;;12.84;65.45;99887.59;5012105;28;102786;-50
2022/04/10 01:56:09;;;;;;;6.85;3.75;;;;;;;12.84;65.47;99889.47;5012418;28;102185;-51
2022/04/10 01:58:38;;;;;;;6.60;3.67;;;;;;;12.83;65.70;99891.41;5011993;28;103929;-50
2022/04/10 02:01:06;;;;;;;5.85;3.50;;;;;;;12.84;65.73;99886.75;5012237;28;101984;-50
2022/04/10 02:03:34;;;;;;;3.95;3.50;;;;;;;12.83;65.43;99896.06;5011704;28;102255;-51
2022/04/10 02:06:02;;;;;;;4.93;3.78;;;;;;;12.84;65.37;99901.25;5012791;28;102305;-50
2022/04/10 02:08:32;;;;;;;5.90;3.80;;;;;;;12.83;65.54;99899.59;5009728;28;103810;-50
2022/04/10 02:10:58;;;;;;;5.13;4.10;;;;;;;12.83;65.47;99896.06;5013806;28;102346;-50
2022/04/10 02:13:27;;;;;;;4.57;3.72;;;;;;;12.82;65.46;99899.91;5011884;28;102303;-50
2022/04/10 02:15:53;;;;;;;4.93;3.88;;;;;;;12.83;65.39;99901.53;5013432;28;102416;-50
2022/04/10 02:18:20;;;;;;;5.97;3.83;;;;;;;12.82;65.43;99895.25;5011213;28;103864;-50
2022/04/10 02:21:04;;;;;;;3.92;3.45;;;;;;;12.83;65.43;99907.00;5010361;28;102315;-50
2022/04/10 02:23:31;;;;;;;5.88;4.05;;;;;;;12.83;65.52;99896.06;5011315;28;101929;-51
2022/04/10 02:25:58;;;;;;;5.47;3.60;;;;;;;12.83;65.23;99893.34;5000328;28;102402;-50
2022/04/10 02:28:26;;;;;;;4.88;3.92;;;;;;;12.82;65.22;99898.00;4991704;28;103758;-50
2022/04/10 02:30:53;;;;;;;6.88;4.30;;;;;;;12.81;65.27;99895.59;5003096;28;102531;-50
2022/04/10 02:33:37;;;;;;;5.20;3.80;;;;;;;12.82;65.27;99894.47;5011122;28;102402;-50
2022/04/10 02:36:05;;;;;;;;;;;;;;;12.81;65.59;99893.66;5012592;28;102016;-51
2022/04/10 02:38:32;;;;;;;5.70;3.80;;;;;;;12.81;65.47;99896.38;5010019;28;104308;-50
2022/04/10 02:40:59;;;;;;;5.47;3.65;;;;;;;12.81;65.47;99896.38;4994496;28;102342;-50
2022/04/10 02:43:27;;;;;;;8.07;3.97;;;;;;;12.81;65.41;99904.56;4991541;28;101969;-50
2022/04/10 02:45:54;;;;;;;4.63;3.80;;;;;;;12.82;65.45;99905.38;4995982;28;103394;-50
2022/04/10 02:48:20;;;;;;;5.13;3.92;;;;;;;12.81;65.58;99914.69;4991536;28;103444;-50
2022/04/10 02:50:51;;;;;;;6.05;4.20;;;;;;;12.81;65.32;99910.03;4990870;28;101897;-50
2022/04/10 02:53:18;;;;;;;6.22;4.15;;;;;;;12.82;65.62;99913.56;4991483;28;102894;-50
2022/04/10 02:55:46;;;;;;;6.57;3.87;;;;;;;12.81;65.44;99931.06;4995645;28;102484;-50
2022/04/10 02:58:13;;;;;;;5.88;4.22;;;;;;;12.81;65.20;99915.50;5005980;28;104136;-50
2022/04/10 03:00:41;;;;;;;6.68;4.03;;;;;;;12.79;65.51;99912.25;4995379;28;102382;-50
2022/04/10 03:03:09;;;;;;;9.88;4.28;;;;;;;12.81;65.29;99914.69;5011016;28;102425;-50
2022/04/10 03:05:37;;;;;;;6.68;4.07;;;;;;;12.80;65.68;99929.44;5011251;28;102479;-50
2022/04/10 03:08:04;;;;;;;6.55;4.28;;;;;;;12.80;65.34;99924.78;5011071;28;104069;-50
2022/04/10 03:10:32;;;;;;;5.50;4.13;;;;;;;12.80;65.58;99926.72;5011677;28;102201;-50
2022/04/10 03:12:59;;;;;;;5.50;3.97;;;;;;;12.81;65.48;99936.53;5011507;28;102413;-50
2022/04/10 03:15:26;;;;;;;6.40;4.05;;;;;;;12.81;65.45;99942.00;5010635;28;102518;-50
2022/04/10 03:17:54;;;;;;;7.35;4.65;;;;;;;12.80;65.47;99951.28;4991069;28;104021;-50
2022/04/10 03:20:36;;;;;;;4.25;3.65;;;;;;;12.81;65.46;99952.91;5008809;28;102396;-51
2022/04/10 03:23:08;;;;;;;5.10;3.90;;;;;;;12.79;65.30;99950.47;5009809;28;101950;-50
2022/04/10 03:25:35;;;;;;;5.95;3.92;;;;;;;12.81;65.01;99958.38;5008513;28;102276;-51
2022/04/10 03:28:03;;;;;;;4.13;3.72;;;;;;;12.79;65.43;99960.59;5010111;28;104208;-51
2022/04/10 03:30:30;;;;;;;5.75;4.25;;;;;;;12.79;65.41;99966.06;5011246;28;102293;-51
2022/04/10 03:32:58;;;;;;;7.30;4.43;;;;;;;12.79;65.43;99966.06;5009442;28;101966;-50
2022/04/10 03:35:24;;;;;;;5.78;3.72;;;;;;;12.79;65.55;99971.50;5009058;28;102377;-50
2022/04/10 03:37:51;;;;;;;6.65;4.63;;;;;;;12.80;65.28;99973.13;5010443;28;103905;-50
2022/04/10 03:40:18;;;;;;;4.80;3.72;;;;;;;12.79;65.51;99972.31;5010844;28;102332;-50
2022/04/10 03:42:46;;;;;;;4.90;4.35;;;;;;;12.79;65.44;99974.25;5009085;28;101949;-50
2022/04/10 03:45:13;;;;;;;5.30;4.10;;;;;;;12.80;65.56;99978.59;5011386;28;102511;-50
2022/04/10 03:47:40;;;;;;;6.93;4.40;;;;;;;12.79;65.68;99983.25;5010652;28;104060;-50
2022/04/10 03:50:09;;;;;;;7.43;4.10;;;;;;;12.80;65.52;99989.50;5011006;28;102657;-50
2022/04/10 03:52:43;;;;;;;8.02;4.43;;;;;;;12.80;65.49;99997.69;5008809;28;102653;-50
2022/04/10 03:55:11;;;;;;;116.72;106.70;;;;;;;12.80;65.23;99989.50;5012563;28;102148;-50
2022/04/10 03:57:37;;;;;;;6.55;4.10;;;;;;;12.80;65.68;99989.50;5013988;28;103910;-50
2022/04/10 04:00:06;;;;;;;5.03;4.05;;;;;;;12.81;65.41;100002.06;5014695;28;102335;-50
2022/04/10 04:02:33;;;;;;;5.28;3.75;;;;;;;12.81;65.48;100002.06;5013764;28;102322;-51
2022/04/10 04:05:00;;;;;;;5.43;3.80;;;;;;;12.81;65.52;99997.41;5014807;28;102800;-51
2022/04/10 04:07:28;;;;;;;5.88;4.03;;;;;;;12.82;65.24;100003.69;5014185;28;103980;-50
2022/04/10 04:09:58;;;;;;;7.70;4.40;;;;;;;12.82;65.32;100003.69;5013397;28;102003;-51
2022/04/10 04:12:24;;;;;;;4.80;4.00;;;;;;;12.84;65.14;100009.63;5012907;28;102252;-51
2022/04/10 04:14:51;;;;;;;5.72;4.43;;;;;;;12.83;65.23;100010.75;5014793;28;102245;-51
2022/04/10 04:17:18;;;;;;;6.32;4.30;;;;;;;12.84;65.25;100012.34;5014284;28;103928;-51
2022/04/10 04:19:49;;;;;;;6.28;4.20;;;;;;;12.84;65.29;99995.97;5011342;28;103691;-51
2022/04/10 04:22:25;;;;;;;6.47;4.50;;;;;;;12.84;65.19;100009.63;5012284;28;102346;-51
2022/04/10 04:24:53;;;;;;;6.20;4.60;;;;;;;12.85;65.57;100025.72;5014208;28;102204;-50
2022/04/10 04:27:20;;;;;;;6.22;4.50;;;;;;;12.85;65.14;100024.91;5013572;28;104416;-50
2022/04/10 04:29:46;;;;;;;4.60;4.05;;;;;;;12.86;65.48;100032.00;5002497;28;103629;-50
2022/04/10 04:32:16;;;;;;;5.60;4.53;;;;;;;12.86;65.23;100038.25;5013397;28;102198;-51
2022/04/10 04:34:42;;;;;;;5.90;4.82;;;;;;;12.88;65.37;100035.25;5014952;28;101940;-50
2022/04/10 04:37:10;;;;;;;7.68;5.55;;;;;;;12.88;65.25;100024.31;5013039;28;103806;-51
2022/04/10 04:39:36;;;;;;;6.80;5.97;;;;;;;12.88;65.11;100010.66;5011788;28;102059;-50
2022/04/10 04:42:09;;;;;;;9.27;5.25;;;;;;;12.88;65.32;100003.28;5013784;28;101952;-51
2022/04/10 04:44:36;;;;;;;6.43;4.68;;;;;;;12.89;65.24;100009.53;4994918;28;102328;-51
2022/04/10 04:47:05;;;;;;;5.70;4.32;;;;;;;12.90;65.67;100033.00;4993950;28;104111;-51
2022/04/10 04:49:31;;;;;;;5.53;4.43;;;;;;;12.90;65.17;100038.47;4998010;28;102262;-51
2022/04/10 04:51:58;;;;;;;4.80;3.97;;;;;;;12.91;65.09;100034.59;5014044;28;102366;-51
2022/04/10 04:54:25;;;;;;;5.40;3.90;;;;;;;12.93;65.21;100043.31;5013795;28;102488;-51
2022/04/10 04:56:53;;;;;;;5.03;3.90;;;;;;;12.93;65.28;100033.19;5011475;28;103931;-51
2022/04/10 04:59:22;;;;;;;4.78;3.60;;;;;;;12.94;64.95;100040.28;5013596;28;102442;-50
2022/04/10 05:01:49;;;;;;;4.28;3.63;;;;;;;12.95;65.07;100035.66;5009749;28;102453;-50
2022/04/10 05:04:17;;;;;;;4.57;4.07;;;;;;;12.95;65.30;100031.00;5011876;28;102015;-50
2022/04/10 05:06:44;;;;;;;4.25;3.65;;;;;;;12.96;65.08;100026.34;5012773;28;103902;-50
2022/04/10 05:09:12;;;;;;;4.18;3.65;;;;;;;12.96;65.10;100032.59;5009885;28;102064;-50
2022/04/10 05:11:40;;;;;;;3.87;3.50;;;;;;;12.97;65.13;100031.47;5013167;28;101948;-50
2022/04/10 05:14:09;;;;;;;3.97;3.55;;;;;;;12.99;64.96;100033.94;5011116;28;102518;-50
2022/04/10 05:16:38;;;;;;;3.90;3.47;;;;;;;12.99;65.06;100020.28;5006007;28;103797;-51
2022/04/10 05:19:05;;;;;;;4.20;3.80;;;;;;;13.01;64.88;100011.75;5010232;28;102057;-51
2022/04/10 05:21:33;;;;;;;4.55;3.65;;;;;;;13.01;65.05;100020.75;4993843;28;102537;-50
2022/04/10 05:23:59;;;;;;;4.55;3.42;;;;;;;13.02;64.96;100025.13;4998261;28;102092;-51
2022/04/10 05:26:26;;;;;;;4.55;3.60;;;;;;;13.04;64.87;100041.19;5012352;28;103920;-50
2022/04/10 05:28:53;;;;;;;3.50;3.20;;;;;;;13.04;64.92;100047.47;5011009;28;102157;-50
2022/04/10 05:31:20;;;;;;;4.80;3.58;;;;;;;13.05;64.93;100040.88;5011276;28;102593;-50
2022/04/10 05:33:49;;;;;;;4.85;3.20;;;;;;;13.05;64.88;100046.34;5013538;28;102862;-50
2022/04/10 05:36:16;;;;;;;3.63;3.08;;;;;;;13.06;64.86;100031.59;5012119;28;103940;-51
2022/04/10 05:38:45;;;;;;;5.22;3.00;;;;;;;13.07;64.98;100038.66;5007845;28;103331;-51
2022/04/10 05:41:11;;;;;;;3.05;2.65;;;;;;;13.08;64.83;100021.16;5013085;28;102609;-51
2022/04/10 05:43:38;;;;;;;3.35;2.85;;;;;;;13.09;64.90;100030.16;5013276;28;102574;-51
2022/04/10 05:46:06;;;;;;;3.58;2.92;;;;;;;13.11;64.76;100028.75;5010602;28;104077;-51
2022/04/10 05:48:32;;;;;;;4.28;3.03;;;;;;;13.10;65.06;100024.41;5012000;28;102246;-50
2022/04/10 05:51:00;;;;;;;3.28;2.60;;;;;;;13.12;65.14;100026.81;5012273;28;101956;-50
2022/04/10 05:53:29;;;;;;;3.55;2.95;;;;;;;13.13;64.96;100023.00;5013748;28;102673;-50
2022/04/10 05:55:56;;;;;;;3.22;2.88;;;;;;;13.13;65.00;100017.53;5011773;28;103915;-50
2022/04/10 05:58:23;;;;;;;3.05;2.75;;;;;;;13.14;64.99;100011.75;5009834;28;102062;-50
2022/04/10 06:00:51;;;;;;;3.28;2.97;;;;;;;13.14;64.45;100010.94;5016035;28;102297;-50
2022/04/10 06:03:18;;;;;;;3.78;2.70;;;;;;;13.15;64.94;100007.91;5025337;27;102224;-51
2022/04/10 06:05:46;;;;;;;2.63;2.42;;;;;;;13.15;64.92;100001.63;5011815;28;104158;-50
2022/04/10 06:08:14;;;;;;;5.13;2.80;;;;;;;13.15;64.84;100001.63;5010130;28;101960;-50
2022/04/10 06:10:41;;;;;;;;;;;;;;;13.14;65.00;99995.34;5008073;28;101985;-50
2022/04/10 06:13:09;;;;;;;3.60;2.97;;;;;;;13.16;64.90;99998.59;5012880;28;102576;-50
2022/04/10 06:15:35;;;;;;;4.45;2.67;;;;;;;13.15;65.48;99996.97;5008213;28;103934;-51
2022/04/10 06:18:03;;;;;;;3.17;2.88;;;;;;;13.16;64.83;100003.22;5012647;28;102407;-50
2022/04/10 06:20:29;;;;;;;3.22;2.58;;;;;;;13.16;65.03;100001.34;5010754;28;101994;-51
2022/04/10 06:22:56;;;;;;;3.15;2.85;;;;;;;13.16;64.91;100009.53;5012564;28;102063;-50
2022/04/10 06:25:24;;;;;;;3.17;2.60;;;;;;;13.15;64.83;99999.69;5008255;28;103727;-50
2022/04/10 06:27:50;;;;;;;2.95;2.40;;;;;;;13.16;65.12;100009.53;5010212;28;102535;-50
2022/04/10 06:30:18;;;;;;;5.65;3.80;;;;;;;13.16;65.00;100009.53;5002555;28;102838;-50
2022/04/10 06:32:45;;;;;;;3.25;2.80;;;;;;;13.16;64.91;100015.00;5007269;28;102482;-50
2022/04/10 06:35:11;;;;;;;3.10;2.75;;;;;;;13.17;65.00;100011.16;5005569;28;103946;-50
2022/04/10 06:37:43;;;;;;;3.00;2.70;;;;;;;13.18;64.84;100011.94;5009708;28;102295;-50
2022/04/10 06:40:10;;;;;;;4.00;3.00;;;;;;;13.17;65.20;100010.34;5026013;28;102358;-50
2022/04/10 06:42:40;;;;;;;4.43;3.22;;;;;;;13.18;64.96;100014.69;5033224;27;102339;-50
2022/04/10 06:45:08;;;;;;;3.88;2.97;;;;;;;13.18;65.30;100012.75;5031199;27;104114;-50
2022/04/10 06:47:34;;;;;;;3.65;2.60;;;;;;;13.19;64.97;100014.34;5032077;27;101981;-50
2022/04/10 06:50:03;;;;;;;3.47;3.05;;;;;;;13.20;65.14;100026.13;5031750;27;102375;-50
2022/04/10 06:52:30;;;;;;;3.45;3.08;;;;;;;13.19;65.21;100028.03;5032615;27;102479;-50
2022/04/10 06:54:56;;;;;;;4.22;3.05;;;;;;;13.19;65.08;100030.75;5028485;27;103976;-50
2022/04/10 06:57:23;;;;;;;4.10;3.00;;;;;;;13.20;65.12;100034.31;5012091;28;102172;-51
2022/04/10 06:59:51;;;;;;;4.93;3.05;;;;;;;13.20;65.25;100029.66;5011083;28;102437;-51
2022/04/10 07:02:18;;;;;;;5.03;3.37;;;;;;;13.20;65.07;100032.41;5013250;28;102144;-51
2022/04/10 07:05:00;;;;;;;4.50;3.08;;;;;;;13.20;65.06;100024.19;5010884;28;104080;-50
2022/04/10 07:07:26;;;;;;;3.42;3.13;;;;;;;13.22;64.96;100054.75;5011840;28;102064;-50
2022/04/10 07:09:53;;;;;;;3.67;3.05;;;;;;;13.20;64.97;100043.31;5010762;28;102348;-50
2022/04/10 07:12:20;;;;;;;5.78;3.28;;;;;;;13.24;65.13;100048.22;5013133;28;102373;-50
2022/04/10 07:14:47;;;;;;;3.72;3.17;;;;;;;13.24;65.00;100045.47;5010478;28;104012;-50
2022/04/10 07:17:16;;;;;;;4.95;3.83;;;;;;;13.24;64.97;100037.28;5011847;28;102303;-50
2022/04/10 07:19:45;;;;;;;4.05;3.22;;;;;;;13.25;64.86;100033.44;5008787;28;101946;-51
2022/04/10 07:25:00;;;;;;;3.67;3.30;;;;;;;13.25;65.02;100030.69;4997630;28;103787;-50
2022/04/10 07:27:26;;;;;;;3.35;3.05;;;;;;;13.25;64.95;100030.69;5012917;28;102492;-50
2022/04/10 07:29:53;;;;;;;6.38;3.25;;;;;;;13.26;64.91;100030.38;5021552;28;102374;-51
2022/04/10 07:32:22;;;;;;;3.58;3.05;;;;;;;13.27;64.96;100025.72;5013868;28;102422;-50
2022/04/10 07:34:49;;;;;;;4.35;3.03;;;;;;;13.26;64.90;100019.44;5007928;28;103905;-50
2022/04/10 07:37:15;;;;;;;4.15;3.50;;;;;;;13.28;65.09;100030.09;5012024;28;102432;-50
2022/04/10 07:39:44;;;;;;;3.63;3.30;;;;;;;13.29;64.99;100023.50;5012957;28;102617;-50
2022/04/10 07:42:10;;;;;;;5.97;3.22;;;;;;;13.28;65.01;100017.22;5015726;28;102158;-50
2022/04/10 07:44:37;;;;;;;5.22;4.05;;;;;;;13.29;64.98;100021.56;5013201;28;103994;-51
2022/04/10 07:49:51;;;;;;;4.45;3.35;;;;;;;13.30;65.04;100012.25;5014202;28;102355;-51
2022/04/10 07:52:18;;;;;;;4.32;3.53;;;;;;;13.31;65.03;100013.09;5016352;28;101886;-51
2022/04/10 07:54:48;;;;;;;4.60;3.22;;;;;;;13.32;65.15;100018.22;5013870;28;103946;-50
2022/04/10 07:57:16;;;;;;;4.95;3.40;;;;;;;13.32;64.97;100023.69;5012459;28;102387;-51
2022/04/10 07:59:43;;;;;;;4.63;3.30;;;;;;;13.34;65.18;100017.91;4995303;28;102447;-50
2022/04/10 08:02:10;;;;;;;5.28;3.17;;;;;;;13.33;65.17;100019.84;5016771;28;102180;-51
2022/04/10 08:04:37;;;;;;;5.40;3.00;;;;;;;13.33;65.09;100014.38;5016929;28;103940;-50
2022/04/10 08:07:05;;;;;;;5.97;3.25;;;;;;;13.34;65.26;100012.44;5008400;28;102019;-50
2022/04/10 08:09:36;;;;;;;4.05;3.65;;;;;;;13.35;65.79;100023.09;5010539;28;101985;-51
2022/04/10 08:12:03;;;;;;;4.63;3.22;;;;;;;13.36;65.44;100023.88;5015221;28;102099;-50
2022/04/10 08:14:30;;;;;;;10.73;6.50;;;;;;;13.37;65.21;100025.50;5012029;28;104118;-50
2022/04/10 08:16:57;;;;;;;10.30;6.97;;;;;;;13.36;65.14;100029.34;5013754;28;102414;-50
2022/04/10 08:19:23;;;;;;;12.23;6.95;;;;;;;13.38;65.32;100018.91;5000581;28;102787;-50
2022/04/10 08:21:50;;;;;;;10.38;6.75;;;;;;;13.38;65.14;100010.72;5011211;28;102473;-50
2022/04/10 08:24:18;;;;;;;11.43;7.13;;;;;;;13.37;65.09;100015.38;5011549;28;104085;-50
2022/04/10 08:26:45;;;;;;;;;;;;;;;13.38;65.07;100017.00;5014082;28;102225;-51
2022/04/10 08:29:12;;;;;;;10.75;7.28;;;;;;;13.40;65.06;100008.50;5011453;28;102417;-50
2022/04/10 08:31:39;;;;;;;13.38;6.72;;;;;;;13.39;65.20;100001.41;5013308;28;102766;-50
2022/04/10 08:34:06;;;;;;;12.55;7.15;;;;;;;13.39;65.13;100012.34;5011548;28;103888;-50
2022/04/10 08:36:33;;;;;;;10.15;7.20;;;;;;;13.39;65.16;100029.56;4993587;28;101872;-51
2022/04/10 08:39:00;;;;;;;12.80;7.43;;;;;;;13.39;65.29;100007.69;4992849;28;102578;-50
2022/04/10 08:41:31;;;;;;;11.00;6.88;;;;;;;13.41;65.24;100015.56;4998306;28;102739;-50
2022/04/10 08:44:00;;;;;;;13.07;6.95;;;;;;;13.41;65.46;100004.63;5013024;28;104112;-50
2022/04/10 08:46:27;;;;;;;10.43;6.90;;;;;;;13.42;65.50;100007.06;4994450;28;102466;-50
2022/04/10 08:48:57;;;;;;;11.43;7.13;;;;;;;13.44;65.54;100009.50;4993479;28;102339;-50
2022/04/10 08:51:30;;;;;;;10.43;7.00;;;;;;;13.44;65.32;99999.38;4995324;28;103328;-50
2022/04/10 08:53:57;;;;;;;11.82;7.53;;;;;;;13.44;65.32;100004.81;5011149;28;104098;-50
2022/04/10 08:56:24;;;;;;;7.97;6.13;;;;;;;13.46;65.43;99990.88;5013363;28;102146;-50
2022/04/10 08:58:52;;;;;;;11.75;6.50;;;;;;;13.47;65.20;99984.28;5012595;28;101978;-50
2022/04/10 09:01:20;;;;;;;8.37;6.03;;;;;;;13.46;65.39;99969.81;5012458;28;102158;-50
2022/04/10 09:03:47;;;;;;;8.55;6.07;;;;;;;13.50;65.88;99975.47;5011644;28;103851;-50
2022/04/10 09:06:14;;;;;;;9.18;6.07;;;;;;;13.51;65.66;99966.13;5007137;28;101822;-50
2022/04/10 09:08:43;;;;;;;8.10;5.97;;;;;;;13.51;65.67;99974.34;5007241;28;102340;-50
2022/04/10 09:11:12;;;;;;;8.15;5.53;;;;;;;13.51;65.47;99979.81;4999531;28;102723;-51
2022/04/10 09:13:51;;;;;;;7.55;5.43;;;;;;;13.52;65.50;99983.34;5012757;28;103847;-51
2022/04/10 09:16:23;;;;;;;8.55;4.88;;;;;;;13.53;65.77;99980.31;5013630;28;101887;-51
2022/04/10 09:19:09;;;;;;;8.15;5.88;;;;;;;13.54;65.43;99975.66;5012959;28;102339;-51
2022/04/10 09:21:37;;;;;;;8.27;5.20;;;;;;;13.53;65.44;99980.31;5013498;28;102620;-51
2022/04/10 09:24:05;;;;;;;7.47;5.72;;;;;;;13.52;65.56;99978.69;5011779;28;104064;-51
2022/04/10 09:26:45;;;;;;;7.93;5.18;;;;;;;13.53;65.55;99977.59;5012760;28;101965;-51
2022/04/10 09:29:21;;;;;;;7.32;5.32;;;;;;;13.54;65.47;99973.72;5010192;28;102420;-50
2022/04/10 09:31:50;;;;;;;7.63;5.40;;;;;;;13.53;65.51;99968.59;5008302;28;102310;-50
2022/04/10 09:34:19;;;;;;;9.55;5.68;;;;;;;13.53;65.62;99969.38;5003703;28;103788;-51
2022/04/10 09:36:47;;;;;;;5.60;4.78;;;;;;;13.54;65.45;99959.25;5011501;28;102064;-51
2022/04/10 09:39:16;;;;;;;7.25;4.93;;;;;;;13.55;65.62;99956.19;5006184;28;103482;-50
2022/04/10 09:41:45;;;;;;;7.35;5.15;;;;;;;13.55;65.53;99956.19;5011555;28;102585;-50
2022/04/10 09:44:19;;;;;;;7.40;5.20;;;;;;;13.54;65.11;99948.31;5008173;28;103924;-50
2022/04/10 09:46:59;;;;;;;7.53;4.72;;;;;;;13.55;65.42;99933.53;5008061;28;102428;-51
2022/04/10 09:49:31;;;;;;;6.88;4.82;;;;;;;13.54;65.23;99938.19;5012141;28;102093;-50
2022/04/10 09:52:02;;;;;;;7.93;5.05;;;;;;;13.55;65.14;99939.78;5008245;28;102007;-50
2022/04/10 09:54:37;;;;;;;6.93;4.65;;;;;;;13.53;65.42;99933.84;5007620;28;104087;-51
2022/04/10 09:57:04;;;;;;;8.25;5.20;;;;;;;13.54;65.43;99931.91;4998859;28;102447;-50
2022/04/10 09:59:36;;;;;;;6.22;4.78;;;;;;;13.55;65.42;99928.88;4999622;28;102068;-50
2022/04/10 10:02:06;;;;;;;7.32;4.75;;;;;;;13.55;65.65;99926.13;5005888;28;102402;-51
2022/04/10 10:04:35;;;;;;;6.40;4.57;;;;;;;13.56;65.51;99922.31;5008177;28;104456;-51
2022/04/10 10:07:04;;;;;;;6.07;5.07;;;;;;;13.57;65.75;99917.63;5011985;28;101851;-51
2022/04/10 10:09:33;;;;;;;6.68;4.88;;;;;;;13.57;65.72;99921.16;5004435;28;102426;-51
2022/04/10 10:12:02;;;;;;;4.50;4.10;;;;;;;13.57;65.57;99914.91;5009381;28;102124;-51
2022/04/10 10:14:31;;;;;;;6.22;4.35;;;;;;;13.57;65.54;99920.38;5009739;28;103941;-50
2022/04/10 10:16:59;;;;;;;6.47;4.87;;;;;;;13.56;65.42;99925.03;5012559;28;102506;-50
2022/04/10 10:19:29;;;;;;;6.17;4.43;;;;;;;13.56;65.71;99927.75;5010457;28;102300;-50
2022/04/10 10:21:56;;;;;;;6.28;4.35;;;;;;;13.57;65.70;99934.84;5005478;28;102732;-51
2022/04/10 10:24:27;;;;;;;7.85;4.30;;;;;;;13.58;65.67;99928.25;5011439;28;103952;-50
2022/04/10 10:27:35;;;;;;;6.40;4.82;;;;;;;13.56;65.56;99930.50;5011686;28;101802;-50
2022/04/10 10:30:18;;;;;;;5.72;4.00;;;;;;;13.56;65.62;99935.97;4949482;28;102593;-50
2022/04/10 10:32:52;;;;;;;6.10;4.68;;;;;;;13.59;65.78;99935.31;4987463;28;102185;-50
2022/04/10 10:35:33;;;;;;;7.15;4.47;;;;;;;13.60;65.63;99930.69;5011195;28;104210;-51
2022/04/10 10:38:00;;;;;;;5.50;4.30;;;;;;;13.58;65.48;99933.72;5012417;28;102001;-50
2022/04/10 10:40:27;;;;;;;5.97;4.88;;;;;;;13.58;65.56;99933.72;5004889;28;102382;-50
2022/04/10 10:42:58;;;;;;;6.10;4.50;;;;;;;13.58;65.92;99933.72;5006361;28;102448;-51
2022/04/10 10:45:36;;;;;;;5.28;4.40;;;;;;;13.59;65.83;99935.31;5010985;28;104112;-50
2022/04/10 10:48:34;;;;;;;7.07;4.50;;;;;;;13.61;65.61;99935.84;5007749;28;103833;-50
2022/04/10 10:51:29;;;;;;;9.38;5.25;;;;;;;13.59;65.58;99935.31;4924385;28;102158;-51
2022/04/10 10:53:58;;;;;;;5.60;4.43;;;;;;;13.58;65.65;99930.97;5009343;28;102102;-51
2022/04/10 10:56:27;;;;;;;;;;;;;;;13.59;65.72;99929.84;5011496;28;103733;-50
2022/04/10 10:59:18;;;;;;;6.53;4.45;;;;;;;13.59;65.70;99937.25;5011162;28;102135;-50
2022/04/10 11:01:51;;;;;;;7.50;4.75;;;;;;;13.60;65.86;99936.16;5001942;28;102173;-51
2022/04/10 11:04:22;;;;;;;10.77;5.40;;;;;;;13.59;65.49;99940.78;5010163;28;102603;-50
2022/04/10 11:06:50;;;;;;;5.75;4.60;;;;;;;13.59;65.48;99939.97;5008525;28;103554;-51
2022/04/10 11:09:22;;;;;;;7.28;4.20;;;;;;;13.59;65.41;99940.78;5010637;28;102436;-51
2022/04/10 11:11:56;;;;;;;6.28;4.47;;;;;;;13.58;65.69;99939.19;5009575;28;102195;-51
2022/04/10 11:14:34;;;;;;;6.53;4.93;;;;;;;13.59;65.63;99938.06;5008952;28;102311;-50
2022/04/10 11:17:09;;;;;;;7.35;4.60;;;;;;;13.60;65.67;99936.97;5002119;28;103995;-51
2022/04/10 11:19:36;;;;;;;7.28;5.05;;;;;;;13.59;65.87;99929.06;4999464;28;102706;-50
2022/04/10 11:22:21;;;;;;;5.18;4.63;;;;;;;13.60;65.59;99930.69;5001005;28;102452;-50
2022/04/10 11:24:51;;;;;;;5.93;4.65;;;;;;;13.59;65.57;99934.53;5011685;28;102776;-51
2022/04/10 11:27:55;;;;;;;11.45;4.90;;;;;;;13.59;65.49;99935.31;5010558;28;103983;-50
2022/04/10 11:30:24;;;;;;;6.60;4.35;;;;;;;13.60;65.74;99926.03;5010783;28;102670;-51
2022/04/10 11:32:53;;;;;;;9.80;5.18;;;;;;;13.60;65.54;99925.22;5010804;28;102317;-50
2022/04/10 11:35:23;;;;;;;5.43;4.63;;;;;;;13.60;65.84;99920.56;5011856;28;102506;-51
2022/04/10 11:37:54;;;;;;;8.50;5.00;;;;;;;13.60;65.60;99919.75;5010548;28;103835;-50